map of KMP home
Great Circle Mapper logo
KMP - Airport
Location
City:  Keetmanshoop, Namibia
ICAO / IATA:FYKT / KMP

Details
Type:Airport (Aerodrome, Airfield)
Use:Public/Civil
Latitude:2632'23"S (-26.539827)
Longitude:1806'41"E (18.111447)
Datum:WGS 1984
Elevation:3506 ft (1069 m)
Variation:16.84W (WMM2015 magnetic declination)
0.01 annual change
Runways:2
Longest:7598 × 148 ft (2316 × 45 m), paved

Time
Time Zone:UTC+1 (DST+2)
Local Time:

Weather
METAR:FYKT 311500Z 09006KT CAVOK 18/M04 Q1026
TAF:FYKT 301600Z 3018/3124 19007KT CAVOK
BECMG 3107/3109 05010KT= TAF FYWB 301600Z 3018/3124 22010KT CAVOK
BECMG 3020/3022 09005KT 9999 BKN020
BECMG 3102/3104 CAVOK PROB30
TEMPO 3108/3110 09015G28KT 2500 SS

Related Locations
Nearby:
Farthest:PHHF: 12110 mi / 19489 km
Tern Island [French Frigate Shoals Airport], Hawaii, HI, US

Find:

   beyond  
but within

Other Information
Maps:
NOTAMs:
Links:
Sources:

  
flag of Namibia   

Sectional Chart

Flight Planning
at skyvector.com

Satellite Image

Google Maps Satellite view

 

Copyright © 2004-2015 Karl L. Swartz. All rights reserved.
The Great Circle Mapper name and logo are trademarks of the Great Circle Mapper.
All other trademarks mentioned herein belong to their respective owners.
Please see credits for attibutions and further copyright information.

  Follow gcmap on Facebook Follow gcmap on Twitter Follow gcmap on Google+

hCard Microformat

Geo Microformat